Aérodrome :
LOGIN :

S'inscrire | Disclaimer

   EN    FR    IT 

 










Légende :    VFR   VFR Marginal   IFR   IFR Intensif   IFR Très Intensif
Visi : 
Plafond : 
>= 8 km
>= 3000ft
5 à 8 km
1000 à 3000 ft
1500m à 5 km
500 à 1000 ft
800 à 1500m
200 à 500 ft
< 800m
< 200 ft
Symboles :   Orages  Brouillard  Fortes neiges  Fortes précipitations  Vent > 20 kt
SIGMETs :   Divers  Orages  Givrage  Turbulence  Onde Orograph.  Cendres Volcan.






- Altitude de l'aérodrome : 6 ft
- Code IATA : PSA


LIRP - Galileo Galilei Pisa

DERNIER METAR :
  • 201415Z 27007KT 230V310 9999 TS FEW020CB SCT025TCU 23/21 Q1007 NOSIG

METARs EXPIRÉS :
  • 201345Z 30006KT 9999 -RA FEW015CB SCT020TCU 23/21 Q1008 TEMPO 5000 SHRA
  • 201315Z 29007KT 9999 BKN025 23/21 Q1009 BECMG 5000 RA
  • 201245Z 13004KT 080V210 9999 FEW020TCU BKN030 23/19 Q1009 BECMG 5000 RA
  • 201215Z 12004KT 9999 FEW020TCU SCT025 BKN060 23/19 Q1010 BECMG 5000 RA
  • 201145Z 12007KT 9999 FEW020TCU SCT030 BKN065 24/19 Q1010 BECMG 5000 RA
  • 201115Z 12006KT 9999 SCT025 24/18 Q1010 NOSIG
  • 201045Z 10006KT 9999 FEW025 SCT035 23/18 Q1010 NOSIG
  • 201015Z 11007KT 9999 BKN035 SCT080 23/19 Q1010 NOSIG
  • 200945Z 11008KT 9999 FEW025 SCT080 22/19 Q1010 NOSIG

TAF TAF LIRP
Valide du 20 à 12h jusqu'au 21 à 12h UTC


201100Z 2012/2112 11008KT 9999 BKN035 BKN070
TEMPO 2012/2106 5000 RA BR BKN020 BKN050
TEMPO 2012/2021 18012KT 3500 TSRA SCT015CB BKN020 OVC070
BECMG 2102/2104 27005KT
BECMG 2110/2112 22015KT 6000 SCT010



MET'MAP, la Météo Aéronautique d'un coup d'oeil ! - Copyright ORBIFLY Décembre 2007 - Disclaimer

ORBIFLY MET'MAP TEAM :

Programmation & Développement : Alexandra Zaïnal
Sur une idée originale de : Baudouin d'Aumeries
Soutien technique & logistique : Manuel Goepfert
Assistance : Marc-Olivier Méhu




SOURCES & CREDITS :

   NOAA